sensor_id;sensor_type;location;lat;lon;timestamp;temperature;humidity
25112;DHT22;13092;51.996;4.458;2023-08-31T00:02:08;14.70;99.90
25112;DHT22;13092;51.996;4.458;2023-08-31T00:05:11;14.70;99.90
25112;DHT22;13092;51.996;4.458;2023-08-31T00:08:06;14.70;99.90
25112;DHT22;13092;51.996;4.458;2023-08-31T00:11:00;14.70;99.90
25112;DHT22;13092;51.996;4.458;2023-08-31T00:14:07;14.70;99.90
25112;DHT22;13092;51.996;4.458;2023-08-31T00:16:49;14.70;99.90
25112;DHT22;13092;51.996;4.458;2023-08-31T00:19:39;14.80;99.90
25112;DHT22;13092;51.996;4.458;2023-08-31T00:22:19;14.80;99.90
25112;DHT22;13092;51.996;4.458;2023-08-31T00:25:12;15.00;99.90
25112;DHT22;13092;51.996;4.458;2023-08-31T00:28:28;14.80;99.90
25112;DHT22;13092;51.996;4.458;2023-08-31T00:34:51;14.80;99.90
25112;DHT22;13092;51.996;4.458;2023-08-31T00:37:50;14.80;99.90
25112;DHT22;13092;51.996;4.458;2023-08-31T00:40:45;14.80;99.90
25112;DHT22;13092;51.996;4.458;2023-08-31T00:43:38;14.80;99.90
25112;DHT22;13092;51.996;4.458;2023-08-31T00:46:50;14.80;99.90
25112;DHT22;13092;51.996;4.458;2023-08-31T00:49:29;14.70;99.90
25112;DHT22;13092;51.996;4.458;2023-08-31T00:52:19;14.80;99.90
25112;DHT22;13092;51.996;4.458;2023-08-31T00:55:22;14.70;99.90
25112;DHT22;13092;51.996;4.458;2023-08-31T00:58:08;14.70;99.90
25112;DHT22;13092;51.996;4.458;2023-08-31T01:00:59;14.60;99.90
25112;DHT22;13092;51.996;4.458;2023-08-31T01:03:55;14.60;99.90
25112;DHT22;13092;51.996;4.458;2023-08-31T01:06:45;14.50;99.90
25112;DHT22;13092;51.996;4.458;2023-08-31T01:09:31;14.40;99.90
25112;DHT22;13092;51.996;4.458;2023-08-31T01:12:26;14.40;99.90
25112;DHT22;13092;51.996;4.458;2023-08-31T01:15:21;14.40;99.90
25112;DHT22;13092;51.996;4.458;2023-08-31T01:18:02;14.40;99.90
25112;DHT22;13092;51.996;4.458;2023-08-31T01:21:19;14.40;99.90
25112;DHT22;13092;51.996;4.458;2023-08-31T01:24:06;14.40;99.90
25112;DHT22;13092;51.996;4.458;2023-08-31T01:30:04;14.50;99.90
25112;DHT22;13092;51.996;4.458;2023-08-31T01:33:07;14.50;99.90
25112;DHT22;13092;51.996;4.458;2023-08-31T01:36:11;14.60;99.90
25112;DHT22;13092;51.996;4.458;2023-08-31T01:39:04;14.70;99.90
25112;DHT22;13092;51.996;4.458;2023-08-31T01:44:45;14.30;99.90
25112;DHT22;13092;51.996;4.458;2023-08-31T01:50:33;14.30;99.90
25112;DHT22;13092;51.996;4.458;2023-08-31T01:53:13;14.30;99.90
25112;DHT22;13092;51.996;4.458;2023-08-31T01:55:49;14.40;99.90
25112;DHT22;13092;51.996;4.458;2023-08-31T02:01:21;14.50;99.90
25112;DHT22;13092;51.996;4.458;2023-08-31T02:06:02;14.70;99.90
25112;DHT22;13092;51.996;4.458;2023-08-31T02:06:54;14.80;99.90
25112;DHT22;13092;51.996;4.458;2023-08-31T02:09:43;14.80;99.90
25112;DHT22;13092;51.996;4.458;2023-08-31T02:12:36;14.90;99.90
25112;DHT22;13092;51.996;4.458;2023-08-31T02:15:50;14.80;99.90
25112;DHT22;13092;51.996;4.458;2023-08-31T02:18:43;14.80;99.90
25112;DHT22;13092;51.996;4.458;2023-08-31T02:21:23;14.80;99.90
25112;DHT22;13092;51.996;4.458;2023-08-31T02:24:14;14.80;99.90
25112;DHT22;13092;51.996;4.458;2023-08-31T02:27:11;14.80;99.90
25112;DHT22;13092;51.996;4.458;2023-08-31T02:30:00;14.80;99.90
25112;DHT22;13092;51.996;4.458;2023-08-31T02:32:47;14.80;99.90
25112;DHT22;13092;51.996;4.458;2023-08-31T02:38:10;14.80;99.90
25112;DHT22;13092;51.996;4.458;2023-08-31T02:41:01;14.80;99.90
25112;DHT22;13092;51.996;4.458;2023-08-31T02:43:56;14.70;99.90
25112;DHT22;13092;51.996;4.458;2023-08-31T02:46:46;14.70;99.90
25112;DHT22;13092;51.996;4.458;2023-08-31T02:49:39;14.70;99.90
25112;DHT22;13092;51.996;4.458;2023-08-31T02:52:26;14.60;99.90
25112;DHT22;13092;51.996;4.458;2023-08-31T02:55:23;14.60;99.90
25112;DHT22;13092;51.996;4.458;2023-08-31T02:58:24;14.50;99.90
25112;DHT22;13092;51.996;4.458;2023-08-31T03:01:30;14.50;99.90
25112;DHT22;13092;51.996;4.458;2023-08-31T03:04:30;14.40;99.90
25112;DHT22;13092;51.996;4.458;2023-08-31T03:07:18;14.20;99.90
25112;DHT22;13092;51.996;4.458;2023-08-31T03:09:57;14.20;99.90
25112;DHT22;13092;51.996;4.458;2023-08-31T03:12:40;14.20;99.90
25112;DHT22;13092;51.996;4.458;2023-08-31T03:15:34;14.20;99.90
25112;DHT22;13092;51.996;4.458;2023-08-31T03:18:18;14.10;99.90
25112;DHT22;13092;51.996;4.458;2023-08-31T03:28:26;14.00;99.90
25112;DHT22;13092;51.996;4.458;2023-08-31T03:35:21;14.00;99.90
25112;DHT22;13092;51.996;4.458;2023-08-31T03:38:19;14.00;99.90
25112;DHT22;13092;51.996;4.458;2023-08-31T03:41:24;13.90;99.90
25112;DHT22;13092;51.996;4.458;2023-08-31T03:44:20;14.00;99.90
25112;DHT22;13092;51.996;4.458;2023-08-31T03:47:03;14.00;99.90
25112;DHT22;13092;51.996;4.458;2023-08-31T03:49:35;14.00;99.90
25112;DHT22;13092;51.996;4.458;2023-08-31T03:52:31;14.00;99.90
25112;DHT22;13092;51.996;4.458;2023-08-31T03:55:23;14.00;99.90
25112;DHT22;13092;51.996;4.458;2023-08-31T03:57:55;13.90;99.90
25112;DHT22;13092;51.996;4.458;2023-08-31T04:00:53;14.00;99.90
25112;DHT22;13092;51.996;4.458;2023-08-31T04:03:36;14.00;99.90
25112;DHT22;13092;51.996;4.458;2023-08-31T04:06:30;13.90;99.90
25112;DHT22;13092;51.996;4.458;2023-08-31T04:09:18;14.00;99.90
25112;DHT22;13092;51.996;4.458;2023-08-31T04:12:02;14.10;99.90
25112;DHT22;13092;51.996;4.458;2023-08-31T04:15:12;14.10;99.90
25112;DHT22;13092;51.996;4.458;2023-08-31T04:21:26;14.20;99.90
25112;DHT22;13092;51.996;4.458;2023-08-31T04:24:17;14.20;99.90
25112;DHT22;13092;51.996;4.458;2023-08-31T04:26:55;14.20;99.90
25112;DHT22;13092;51.996;4.458;2023-08-31T04:29:58;14.30;99.90
25112;DHT22;13092;51.996;4.458;2023-08-31T04:33:02;14.30;99.90
25112;DHT22;13092;51.996;4.458;2023-08-31T04:35:44;14.40;99.90
25112;DHT22;13092;51.996;4.458;2023-08-31T04:38:50;14.40;99.90
25112;DHT22;13092;51.996;4.458;2023-08-31T04:41:39;14.50;99.90
25112;DHT22;13092;51.996;4.458;2023-08-31T04:44:40;14.60;99.90
25112;DHT22;13092;51.996;4.458;2023-08-31T04:47:31;14.60;99.90
25112;DHT22;13092;51.996;4.458;2023-08-31T05:04:28;14.90;99.90
25112;DHT22;13092;51.996;4.458;2023-08-31T05:19:06;14.90;99.90
25112;DHT22;13092;51.996;4.458;2023-08-31T05:25:57;15.00;99.90
25112;DHT22;13092;51.996;4.458;2023-08-31T05:28:57;15.00;99.90
25112;DHT22;13092;51.996;4.458;2023-08-31T05:32:32;15.00;99.90
25112;DHT22;13092;51.996;4.458;2023-08-31T05:35:41;15.00;99.90
25112;DHT22;13092;51.996;4.458;2023-08-31T05:38:57;15.10;99.90
25112;DHT22;13092;51.996;4.458;2023-08-31T05:44:52;15.10;99.90
25112;DHT22;13092;51.996;4.458;2023-08-31T05:48:01;15.10;99.90
25112;DHT22;13092;51.996;4.458;2023-08-31T05:51:19;15.10;99.90
25112;DHT22;13092;51.996;4.458;2023-08-31T05:56:56;15.20;99.90
25112;DHT22;13092;51.996;4.458;2023-08-31T06:00:05;15.20;99.90
25112;DHT22;13092;51.996;4.458;2023-08-31T06:02:39;15.30;99.90
25112;DHT22;13092;51.996;4.458;2023-08-31T06:05:38;15.30;99.90
25112;DHT22;13092;51.996;4.458;2023-08-31T06:08:34;15.40;99.90
25112;DHT22;13092;51.996;4.458;2023-08-31T06:11:31;15.40;99.90
25112;DHT22;13092;51.996;4.458;2023-08-31T06:14:17;15.50;99.90
25112;DHT22;13092;51.996;4.458;2023-08-31T06:17:36;15.60;99.90
25112;DHT22;13092;51.996;4.458;2023-08-31T06:23:38;15.80;99.90
25112;DHT22;13092;51.996;4.458;2023-08-31T06:26:45;15.80;99.90
25112;DHT22;13092;51.996;4.458;2023-08-31T06:31:36;15.90;99.90
25112;DHT22;13092;51.996;4.458;2023-08-31T06:37:16;16.00;99.90
25112;DHT22;13092;51.996;4.458;2023-08-31T07:09:45;16.80;99.90
25112;DHT22;13092;51.996;4.458;2023-08-31T07:13:29;17.00;99.90
25112;DHT22;13092;51.996;4.458;2023-08-31T07:17:02;17.10;99.90
25112;DHT22;13092;51.996;4.458;2023-08-31T07:27:46;17.20;99.90
25112;DHT22;13092;51.996;4.458;2023-08-31T07:35:03;17.50;99.90
25112;DHT22;13092;51.996;4.458;2023-08-31T07:42:20;17.50;99.90
25112;DHT22;13092;51.996;4.458;2023-08-31T07:45:58;17.50;99.90
25112;DHT22;13092;51.996;4.458;2023-08-31T07:49:26;17.50;99.90
25112;DHT22;13092;51.996;4.458;2023-08-31T07:55:58;17.50;99.90
25112;DHT22;13092;51.996;4.458;2023-08-31T07:59:47;17.60;99.90
25112;DHT22;13092;51.996;4.458;2023-08-31T08:03:17;17.60;99.90
25112;DHT22;13092;51.996;4.458;2023-08-31T08:10:19;17.80;99.90
25112;DHT22;13092;51.996;4.458;2023-08-31T08:17:27;17.90;99.90
25112;DHT22;13092;51.996;4.458;2023-08-31T08:50:17;18.50;99.90
25112;DHT22;13092;51.996;4.458;2023-08-31T08:52:46;18.50;99.90
25112;DHT22;13092;51.996;4.458;2023-08-31T08:55:15;18.50;99.90
25112;DHT22;13092;51.996;4.458;2023-08-31T08:57:44;18.50;99.90
25112;DHT22;13092;51.996;4.458;2023-08-31T09:00:13;18.50;99.90
25112;DHT22;13092;51.996;4.458;2023-08-31T09:02:45;18.50;99.90
25112;DHT22;13092;51.996;4.458;2023-08-31T09:05:13;18.50;99.90
25112;DHT22;13092;51.996;4.458;2023-08-31T09:08:06;18.50;99.90
25112;DHT22;13092;51.996;4.458;2023-08-31T09:10:38;18.50;99.90
25112;DHT22;13092;51.996;4.458;2023-08-31T09:13:07;18.50;99.90
25112;DHT22;13092;51.996;4.458;2023-08-31T09:15:41;18.60;99.90
25112;DHT22;13092;51.996;4.458;2023-08-31T09:18:14;18.60;99.90
25112;DHT22;13092;51.996;4.458;2023-08-31T09:20:45;18.70;99.90
25112;DHT22;13092;51.996;4.458;2023-08-31T09:23:34;18.70;99.90
25112;DHT22;13092;51.996;4.458;2023-08-31T09:26:14;18.80;99.90
25112;DHT22;13092;51.996;4.458;2023-08-31T09:28:44;18.70;99.90
25112;DHT22;13092;51.996;4.458;2023-08-31T09:31:30;18.80;99.90
25112;DHT22;13092;51.996;4.458;2023-08-31T09:39:36;19.10;99.90
25112;DHT22;13092;51.996;4.458;2023-08-31T09:42:28;19.10;99.90
25112;DHT22;13092;51.996;4.458;2023-08-31T09:49:19;19.30;99.90
25112;DHT22;13092;51.996;4.458;2023-08-31T09:52:43;19.30;99.90
25112;DHT22;13092;51.996;4.458;2023-08-31T09:56:12;19.50;99.90
25112;DHT22;13092;51.996;4.458;2023-08-31T09:59:14;19.50;99.90
25112;DHT22;13092;51.996;4.458;2023-08-31T10:02:06;19.60;99.90
25112;DHT22;13092;51.996;4.458;2023-08-31T10:05:29;19.70;99.90
25112;DHT22;13092;51.996;4.458;2023-08-31T10:08:36;19.80;99.90
25112;DHT22;13092;51.996;4.458;2023-08-31T10:11:26;19.90;99.90
25112;DHT22;13092;51.996;4.458;2023-08-31T10:14:15;19.80;99.90
25112;DHT22;13092;51.996;4.458;2023-08-31T10:17:22;19.90;99.90
25112;DHT22;13092;51.996;4.458;2023-08-31T10:20:50;19.90;99.90
25112;DHT22;13092;51.996;4.458;2023-08-31T10:23:52;19.90;99.90
25112;DHT22;13092;51.996;4.458;2023-08-31T10:26:49;19.90;99.90
25112;DHT22;13092;51.996;4.458;2023-08-31T10:33:22;19.60;99.90
25112;DHT22;13092;51.996;4.458;2023-08-31T10:36:36;19.70;99.90
25112;DHT22;13092;51.996;4.458;2023-08-31T10:47:37;20.00;99.90
25112;DHT22;13092;51.996;4.458;2023-08-31T10:51:11;19.90;99.90
25112;DHT22;13092;51.996;4.458;2023-08-31T10:54:12;20.00;99.90
25112;DHT22;13092;51.996;4.458;2023-08-31T10:59:49;20.10;99.90
25112;DHT22;13092;51.996;4.458;2023-08-31T11:04:20;20.20;99.90
25112;DHT22;13092;51.996;4.458;2023-08-31T11:10:31;20.50;99.90
25112;DHT22;13092;51.996;4.458;2023-08-31T11:17:36;20.60;99.90
25112;DHT22;13092;51.996;4.458;2023-08-31T11:20:49;20.50;99.90
25112;DHT22;13092;51.996;4.458;2023-08-31T11:24:43;20.50;99.90
25112;DHT22;13092;51.996;4.458;2023-08-31T11:27:58;20.40;99.90
25112;DHT22;13092;51.996;4.458;2023-08-31T11:34:07;20.60;99.90
25112;DHT22;13092;51.996;4.458;2023-08-31T11:41:44;20.70;99.90
25112;DHT22;13092;51.996;4.458;2023-08-31T11:45:22;20.80;99.90
25112;DHT22;13092;51.996;4.458;2023-08-31T11:55:25;21.30;99.90
25112;DHT22;13092;51.996;4.458;2023-08-31T12:10:03;21.40;99.90
25112;DHT22;13092;51.996;4.458;2023-08-31T12:16:19;21.40;99.90
25112;DHT22;13092;51.996;4.458;2023-08-31T12:19:14;21.20;99.90
25112;DHT22;13092;51.996;4.458;2023-08-31T12:25:23;21.20;99.90
25112;DHT22;13092;51.996;4.458;2023-08-31T12:28:05;21.10;99.90
25112;DHT22;13092;51.996;4.458;2023-08-31T12:34:16;21.10;99.90
25112;DHT22;13092;51.996;4.458;2023-08-31T12:37:02;21.20;99.90
25112;DHT22;13092;51.996;4.458;2023-08-31T12:40:42;21.30;99.90
25112;DHT22;13092;51.996;4.458;2023-08-31T12:43:36;21.40;99.90
25112;DHT22;13092;51.996;4.458;2023-08-31T12:49:48;21.40;99.90
25112;DHT22;13092;51.996;4.458;2023-08-31T12:53:40;21.40;99.90
25112;DHT22;13092;51.996;4.458;2023-08-31T12:56:37;21.50;99.90
25112;DHT22;13092;51.996;4.458;2023-08-31T13:03:15;21.40;99.90
25112;DHT22;13092;51.996;4.458;2023-08-31T13:06:50;21.20;99.90
25112;DHT22;13092;51.996;4.458;2023-08-31T13:09:51;21.30;99.90
25112;DHT22;13092;51.996;4.458;2023-08-31T13:12:36;21.30;99.90
25112;DHT22;13092;51.996;4.458;2023-08-31T13:15:45;21.30;99.90
25112;DHT22;13092;51.996;4.458;2023-08-31T13:18:30;21.40;99.90
25112;DHT22;13092;51.996;4.458;2023-08-31T13:21:16;21.50;99.90
25112;DHT22;13092;51.996;4.458;2023-08-31T13:24:45;21.50;99.90
25112;DHT22;13092;51.996;4.458;2023-08-31T13:27:33;21.70;99.90
25112;DHT22;13092;51.996;4.458;2023-08-31T13:30:26;21.80;99.90
25112;DHT22;13092;51.996;4.458;2023-08-31T13:33:36;21.70;99.90
25112;DHT22;13092;51.996;4.458;2023-08-31T13:36:40;21.60;99.90
25112;DHT22;13092;51.996;4.458;2023-08-31T13:39:46;21.70;99.90
25112;DHT22;13092;51.996;4.458;2023-08-31T13:43:17;21.70;99.90
25112;DHT22;13092;51.996;4.458;2023-08-31T13:46:30;21.80;99.90
25112;DHT22;13092;51.996;4.458;2023-08-31T13:50:02;21.80;99.90
25112;DHT22;13092;51.996;4.458;2023-08-31T13:53:04;21.60;99.90
25112;DHT22;13092;51.996;4.458;2023-08-31T13:56:34;21.60;99.90
25112;DHT22;13092;51.996;4.458;2023-08-31T14:03:44;21.60;99.90
25112;DHT22;13092;51.996;4.458;2023-08-31T14:06:49;21.60;99.90
25112;DHT22;13092;51.996;4.458;2023-08-31T14:13:42;21.40;99.90
25112;DHT22;13092;51.996;4.458;2023-08-31T14:17:02;21.40;99.90
25112;DHT22;13092;51.996;4.458;2023-08-31T14:30:48;21.60;99.90
25112;DHT22;13092;51.996;4.458;2023-08-31T14:34:05;21.40;99.90
25112;DHT22;13092;51.996;4.458;2023-08-31T14:37:17;21.60;99.90
25112;DHT22;13092;51.996;4.458;2023-08-31T14:40:27;21.70;99.90
25112;DHT22;13092;51.996;4.458;2023-08-31T14:46:56;21.90;99.90
25112;DHT22;13092;51.996;4.458;2023-08-31T14:50:02;21.90;99.90
25112;DHT22;13092;51.996;4.458;2023-08-31T14:53:29;22.00;99.90
25112;DHT22;13092;51.996;4.458;2023-08-31T14:56:21;21.70;99.90
25112;DHT22;13092;51.996;4.458;2023-08-31T14:59:53;21.90;99.90
25112;DHT22;13092;51.996;4.458;2023-08-31T15:05:39;21.90;99.90
25112;DHT22;13092;51.996;4.458;2023-08-31T15:08:46;21.90;99.90
25112;DHT22;13092;51.996;4.458;2023-08-31T15:11:58;21.90;99.90
25112;DHT22;13092;51.996;4.458;2023-08-31T15:26:21;22.30;99.90
25112;DHT22;13092;51.996;4.458;2023-08-31T15:31:13;22.30;99.90
25112;DHT22;13092;51.996;4.458;2023-08-31T15:33:13;22.20;99.90
25112;DHT22;13092;51.996;4.458;2023-08-31T15:36:16;22.20;99.90
25112;DHT22;13092;51.996;4.458;2023-08-31T15:39:47;22.40;99.90
25112;DHT22;13092;51.996;4.458;2023-08-31T15:46:07;22.00;99.90
25112;DHT22;13092;51.996;4.458;2023-08-31T15:48:46;22.20;99.90
25112;DHT22;13092;51.996;4.458;2023-08-31T15:51:51;22.20;99.90
25112;DHT22;13092;51.996;4.458;2023-08-31T15:58:50;22.00;99.90
25112;DHT22;13092;51.996;4.458;2023-08-31T16:02:08;21.90;99.90
25112;DHT22;13092;51.996;4.458;2023-08-31T16:05:30;21.90;99.90
25112;DHT22;13092;51.996;4.458;2023-08-31T16:15:35;22.10;99.90
25112;DHT22;13092;51.996;4.458;2023-08-31T16:37:09;22.80;99.90
25112;DHT22;13092;51.996;4.458;2023-08-31T16:46:58;22.40;99.90
25112;DHT22;13092;51.996;4.458;2023-08-31T16:48:09;22.10;99.90
25112;DHT22;13092;51.996;4.458;2023-08-31T16:51:30;21.90;99.90
25112;DHT22;13092;51.996;4.458;2023-08-31T16:55:14;21.80;99.90
25112;DHT22;13092;51.996;4.458;2023-08-31T16:58:46;21.70;99.90
25112;DHT22;13092;51.996;4.458;2023-08-31T17:02:02;21.70;99.90
25112;DHT22;13092;51.996;4.458;2023-08-31T17:05:02;21.90;99.90
25112;DHT22;13092;51.996;4.458;2023-08-31T17:08:31;22.10;99.90
25112;DHT22;13092;51.996;4.458;2023-08-31T17:15:16;22.70;99.90
25112;DHT22;13092;51.996;4.458;2023-08-31T17:18:52;22.60;99.90
25112;DHT22;13092;51.996;4.458;2023-08-31T17:21:56;22.50;99.90
25112;DHT22;13092;51.996;4.458;2023-08-31T17:24:59;22.50;99.90
25112;DHT22;13092;51.996;4.458;2023-08-31T17:28:07;22.30;99.90
25112;DHT22;13092;51.996;4.458;2023-08-31T17:38:13;21.50;99.90
25112;DHT22;13092;51.996;4.458;2023-08-31T17:49:00;21.00;99.90
25112;DHT22;13092;51.996;4.458;2023-08-31T17:51:54;20.70;99.90
25112;DHT22;13092;51.996;4.458;2023-08-31T17:58:17;20.30;99.90
25112;DHT22;13092;51.996;4.458;2023-08-31T18:00:59;20.20;99.90
25112;DHT22;13092;51.996;4.458;2023-08-31T18:04:25;20.10;99.90
25112;DHT22;13092;51.996;4.458;2023-08-31T18:14:22;20.20;99.90
25112;DHT22;13092;51.996;4.458;2023-08-31T18:17:51;20.00;99.90
25112;DHT22;13092;51.996;4.458;2023-08-31T18:47:08;19.60;99.90
25112;DHT22;13092;51.996;4.458;2023-08-31T18:50:27;19.60;99.90
25112;DHT22;13092;51.996;4.458;2023-08-31T18:53:35;19.70;99.90
25112;DHT22;13092;51.996;4.458;2023-08-31T18:57:03;19.70;99.90
25112;DHT22;13092;51.996;4.458;2023-08-31T19:03:32;19.70;99.90
25112;DHT22;13092;51.996;4.458;2023-08-31T19:07:18;19.70;99.90
25112;DHT22;13092;51.996;4.458;2023-08-31T19:10:11;19.70;99.90
25112;DHT22;13092;51.996;4.458;2023-08-31T19:13:25;19.70;99.90
25112;DHT22;13092;51.996;4.458;2023-08-31T19:19:56;19.80;99.90
25112;DHT22;13092;51.996;4.458;2023-08-31T19:23:01;19.80;99.90
25112;DHT22;13092;51.996;4.458;2023-08-31T19:27:19;19.80;99.90
25112;DHT22;13092;51.996;4.458;2023-08-31T19:30:26;19.70;99.90
25112;DHT22;13092;51.996;4.458;2023-08-31T19:33:19;19.60;99.90
25112;DHT22;13092;51.996;4.458;2023-08-31T19:40:22;19.80;99.90
25112;DHT22;13092;51.996;4.458;2023-08-31T19:48:25;19.70;99.90
25112;DHT22;13092;51.996;4.458;2023-08-31T19:54:46;19.70;99.90
25112;DHT22;13092;51.996;4.458;2023-08-31T20:05:23;19.40;99.90
25112;DHT22;13092;51.996;4.458;2023-08-31T20:08:12;19.50;99.90
25112;DHT22;13092;51.996;4.458;2023-08-31T20:11:52;19.40;99.90
25112;DHT22;13092;51.996;4.458;2023-08-31T20:15:04;19.30;99.90
25112;DHT22;13092;51.996;4.458;2023-08-31T20:18:50;19.30;99.90
25112;DHT22;13092;51.996;4.458;2023-08-31T20:21:45;19.30;99.90
25112;DHT22;13092;51.996;4.458;2023-08-31T20:24:34;19.30;99.90
25112;DHT22;13092;51.996;4.458;2023-08-31T20:27:37;19.20;99.90
25112;DHT22;13092;51.996;4.458;2023-08-31T20:31:01;19.30;99.90
25112;DHT22;13092;51.996;4.458;2023-08-31T20:33:44;19.20;99.90
25112;DHT22;13092;51.996;4.458;2023-08-31T20:36:57;19.20;99.90
25112;DHT22;13092;51.996;4.458;2023-08-31T20:40:06;19.20;99.90
25112;DHT22;13092;51.996;4.458;2023-08-31T20:42:56;19.20;99.90
25112;DHT22;13092;51.996;4.458;2023-08-31T20:48:49;19.20;99.90
25112;DHT22;13092;51.996;4.458;2023-08-31T20:51:44;19.20;99.90
25112;DHT22;13092;51.996;4.458;2023-08-31T20:54:59;19.30;99.90
25112;DHT22;13092;51.996;4.458;2023-08-31T20:57:47;19.30;99.90
25112;DHT22;13092;51.996;4.458;2023-08-31T21:00:35;19.20;99.90
25112;DHT22;13092;51.996;4.458;2023-08-31T21:03:25;19.30;99.90
25112;DHT22;13092;51.996;4.458;2023-08-31T21:06:34;19.20;99.90
25112;DHT22;13092;51.996;4.458;2023-08-31T21:09:47;19.10;99.90
25112;DHT22;13092;51.996;4.458;2023-08-31T21:29:19;18.80;99.90
25112;DHT22;13092;51.996;4.458;2023-08-31T21:32:13;18.80;99.90
25112;DHT22;13092;51.996;4.458;2023-08-31T21:35:17;18.80;99.90
25112;DHT22;13092;51.996;4.458;2023-08-31T21:45:22;18.50;99.90
25112;DHT22;13092;51.996;4.458;2023-08-31T21:48:08;18.70;99.90
25112;DHT22;13092;51.996;4.458;2023-08-31T21:55:15;18.70;99.90
25112;DHT22;13092;51.996;4.458;2023-08-31T22:05:42;18.80;99.90
25112;DHT22;13092;51.996;4.458;2023-08-31T22:08:36;18.80;99.90
25112;DHT22;13092;51.996;4.458;2023-08-31T22:23:53;18.90;99.90
25112;DHT22;13092;51.996;4.458;2023-08-31T23:27:08;18.50;99.90
25112;DHT22;13092;51.996;4.458;2023-08-31T23:36:38;18.40;99.90
25112;DHT22;13092;51.996;4.458;2023-08-31T23:43:36;18.40;99.90
25112;DHT22;13092;51.996;4.458;2023-08-31T23:47:22;18.50;99.90
25112;DHT22;13092;51.996;4.458;2023-08-31T23:53:49;18.40;99.90
25112;DHT22;13092;51.996;4.458;2023-08-31T23:57:22;18.40;99.90
